createdAt,value
2022-12-01T00:00:40.638Z,101616.13
2022-12-01T00:03:30.816Z,101631.25
2022-12-01T00:06:19.874Z,101629.81
2022-12-01T00:09:25.053Z,101631.69
2022-12-01T00:12:11.796Z,101636.88
2022-12-01T00:15:01.143Z,101634.19
2022-12-01T00:17:49.055Z,101638.94
2022-12-01T00:20:35.599Z,101643.31
2022-12-01T00:23:23.259Z,101583.75
2022-12-01T00:26:09.520Z,101628.16
2022-12-01T00:28:59.264Z,101607.19
2022-12-01T00:31:45.578Z,101637.69
2022-12-01T00:34:32.115Z,101634.38
2022-12-01T00:37:18.642Z,101621.94
2022-12-01T00:40:06.081Z,101594.31
2022-12-01T00:42:52.624Z,101631.25
2022-12-01T00:45:39.378Z,101622.13
2022-12-01T00:48:25.474Z,101618.38
2022-12-01T00:51:14.835Z,101564.84
2022-12-01T00:54:01.390Z,101565.69
2022-12-01T00:56:48.579Z,101610.50
2022-12-01T00:59:35.836Z,101620.47
2022-12-01T01:02:22.583Z,101527.47
2022-12-01T01:05:09.193Z,101567.31
2022-12-01T01:07:58.800Z,101584.97
2022-12-01T01:10:46.995Z,101600.13
2022-12-01T01:13:34.472Z,101608.00
2022-12-01T01:16:21.701Z,101617.56
2022-12-01T01:19:08.327Z,101587.06
2022-12-01T01:21:54.753Z,101602.00
2022-12-01T01:24:44.061Z,101609.28
2022-12-01T01:27:30.509Z,101610.94
2022-12-01T01:30:21.065Z,101584.34
2022-12-01T01:33:07.235Z,101597.88
2022-12-01T01:35:53.979Z,101602.00
2022-12-01T01:38:40.084Z,101617.16
2022-12-01T01:41:26.576Z,101582.69
2022-12-01T01:44:46.022Z,101609.25
2022-12-01T01:47:37.472Z,101602.84
2022-12-01T01:50:27.331Z,101610.31
2022-12-01T01:53:15.198Z,101583.53
2022-12-01T01:56:05.718Z,101572.94
2022-12-01T01:58:52.885Z,101596.41
2022-12-01T02:01:39.397Z,101582.50
2022-12-01T02:04:27.055Z,101585.00
2022-12-01T02:07:16.772Z,101596.22
2022-12-01T02:10:04.725Z,101566.53
2022-12-01T02:13:09.594Z,101606.56
2022-12-01T02:16:02.410Z,101589.75
2022-12-01T02:19:00.880Z,101611.34
2022-12-01T02:22:17.525Z,101585.22
2022-12-01T02:25:12.413Z,101587.50
2022-12-01T02:28:11.344Z,101560.28
2022-12-01T02:31:03.664Z,101619.63
2022-12-01T02:34:12.778Z,101612.59
2022-12-01T02:37:03.660Z,101597.63
2022-12-01T02:40:25.608Z,101609.69
2022-12-01T02:43:40.082Z,101597.44
2022-12-01T02:46:29.601Z,101604.50
2022-12-01T02:49:19.090Z,101588.72
2022-12-01T02:52:06.619Z,101566.53
2022-12-01T02:54:53.536Z,101604.91
2022-12-01T02:57:40.538Z,101599.50
2022-12-01T03:00:27.021Z,101523.16
2022-12-01T03:03:35.384Z,101598.69
2022-12-01T03:06:31.809Z,101572.97
2022-12-01T03:09:39.983Z,101513.84
2022-12-01T03:12:28.929Z,101599.50
2022-12-01T03:15:31.518Z,101600.38
2022-12-01T03:18:40.253Z,101597.66
2022-12-01T03:21:29.557Z,101602.84
2022-12-01T03:24:18.528Z,101587.25
2022-12-01T03:27:06.302Z,101599.31
2022-12-01T03:29:58.910Z,101572.56
2022-12-01T03:32:51.907Z,101587.91
2022-12-01T03:35:45.454Z,101577.91
2022-12-01T03:38:36.257Z,101552.00
2022-12-01T03:41:28.440Z,101565.69
2022-12-01T03:44:18.228Z,101598.47
2022-12-01T03:47:07.294Z,101585.19
2022-12-01T03:49:54.367Z,101590.38
2022-12-01T03:52:58.860Z,101605.94
2022-12-01T03:55:49.087Z,101588.72
2022-12-01T03:58:42.072Z,101584.34
2022-12-01T04:01:34.007Z,101600.97
2022-12-01T04:04:20.318Z,101570.25
2022-12-01T04:07:09.988Z,101535.00
2022-12-01T04:09:56.277Z,101576.06
2022-12-01T04:12:44.726Z,101575.03
2022-12-01T04:15:31.128Z,101574.41
2022-12-01T04:18:18.781Z,101513.03
2022-12-01T04:21:05.569Z,101566.72
2022-12-01T04:24:00.787Z,101563.63
2022-12-01T04:26:47.292Z,101536.22
2022-12-01T04:29:34.152Z,101525.88
2022-12-01T04:32:23.505Z,101577.31
2022-12-01T04:35:12.667Z,101590.59
2022-12-01T04:37:59.548Z,101564.03
2022-12-01T04:40:55.295Z,101521.72
2022-12-01T04:43:41.884Z,101543.09
2022-12-01T04:46:28.635Z,101527.72
2022-12-01T04:49:15.051Z,101573.38
2022-12-01T04:52:01.901Z,101593.69
2022-12-01T04:54:48.429Z,101595.78
2022-12-01T04:57:35.028Z,101532.31
2022-12-01T05:00:21.397Z,101597.25
2022-12-01T05:03:13.535Z,101594.34
2022-12-01T05:06:09.098Z,101582.69
2022-12-01T05:09:01.121Z,101600.34
2022-12-01T05:11:47.444Z,101588.72
2022-12-01T05:14:34.034Z,101596.41
2022-12-01T05:17:28.810Z,101578.53
2022-12-01T05:20:41.919Z,101577.72
2022-12-01T05:23:30.714Z,101589.53
2022-12-01T05:26:17.552Z,101602.19
2022-12-01T05:29:04.474Z,101588.72
2022-12-01T05:31:50.870Z,101571.50
2022-12-01T05:34:37.260Z,101610.06
2022-12-01T05:37:24.138Z,101571.06
2022-12-01T05:40:13.407Z,101568.56
2022-12-01T05:43:00.465Z,101587.44
2022-12-01T05:45:52.419Z,101589.34
2022-12-01T05:48:42.391Z,101587.44
2022-12-01T05:51:29.427Z,101580.38
2022-12-01T05:54:16.535Z,101527.94
2022-12-01T05:57:02.881Z,101592.84
2022-12-01T05:59:49.741Z,101571.28
2022-12-01T06:02:36.062Z,101598.44
2022-12-01T06:05:22.988Z,101596.59
2022-12-01T06:08:10.018Z,101567.97
2022-12-01T06:10:57.107Z,101582.47
2022-12-01T06:13:44.018Z,101611.75
2022-12-01T06:16:30.442Z,101613.41
2022-12-01T06:19:16.999Z,101547.44
2022-12-01T06:22:04.533Z,101607.16
2022-12-01T06:24:53.946Z,101594.53
2022-12-01T06:27:40.970Z,101616.28
2022-12-01T06:30:27.330Z,101608.22
2022-12-01T06:33:14.014Z,101547.84
2022-12-01T06:36:04.769Z,101619.84
2022-12-01T06:38:51.489Z,101564.25
2022-12-01T06:41:38.468Z,101613.63
2022-12-01T06:44:32.213Z,101628.34
2022-12-01T06:47:18.468Z,101609.47
2022-12-01T06:50:09.997Z,101567.78
2022-12-01T06:52:59.077Z,101604.72
2022-12-01T06:55:46.378Z,101619.66
2022-12-01T06:58:33.055Z,101621.94
2022-12-01T07:01:20.263Z,101632.50
2022-12-01T07:04:06.868Z,101626.28
2022-12-01T07:06:53.852Z,101629.38
2022-12-01T07:09:40.758Z,101640.81
2022-12-01T07:12:31.719Z,101637.88
2022-12-01T07:15:17.913Z,101634.78
2022-12-01T07:18:05.546Z,101634.56
2022-12-01T07:20:52.493Z,101614.66
2022-12-01T07:23:40.071Z,101628.34
2022-12-01T07:26:26.922Z,101584.78
2022-12-01T07:29:14.286Z,101648.06
2022-12-01T07:32:01.133Z,101638.72
2022-12-01T07:34:47.717Z,101626.91
2022-12-01T07:37:34.179Z,101647.44
2022-12-01T07:40:23.889Z,101625.63
2022-12-01T07:43:10.795Z,101630.00
2022-12-01T07:45:57.361Z,101631.22
2022-12-01T07:48:44.723Z,101658.66
2022-12-01T07:51:31.680Z,101654.50
2022-12-01T07:54:20.244Z,101613.19
2022-12-01T07:57:07.384Z,101646.38
2022-12-01T07:59:53.675Z,101628.72
2022-12-01T08:02:40.669Z,101640.38
2022-12-01T08:05:29.676Z,101630.38
2022-12-01T08:08:16.817Z,101645.94
2022-12-01T08:11:05.694Z,101652.38
2022-12-01T08:13:53.582Z,101618.34
2022-12-01T08:16:42.587Z,101637.41
2022-12-01T08:19:29.513Z,101646.75
2022-12-01T08:22:16.210Z,101584.53
2022-12-01T08:25:02.866Z,101628.69
2022-12-01T08:27:49.746Z,101629.72
2022-12-01T08:30:36.824Z,101638.63
2022-12-01T08:33:23.818Z,101632.63
2022-12-01T08:36:10.706Z,101629.72
2022-12-01T08:38:57.611Z,101646.09
2022-12-01T08:41:44.556Z,101642.75
2022-12-01T08:44:31.094Z,101635.94
2022-12-01T08:47:22.185Z,101630.13
2022-12-01T08:50:08.738Z,101654.00
2022-12-01T08:52:55.718Z,101628.25
2022-12-01T08:55:42.009Z,101656.03
2022-12-01T08:58:29.101Z,101640.66
2022-12-01T09:01:16.862Z,101629.69
2022-12-01T09:04:08.610Z,101620.75
2022-12-01T09:06:57.173Z,101645.22
2022-12-01T09:09:45.051Z,101643.94
2022-12-01T09:12:31.917Z,101649.56
2022-12-01T09:15:18.936Z,101624.28
2022-12-01T09:18:07.317Z,101546.72
2022-12-01T09:20:54.672Z,101597.69
2022-12-01T09:23:42.583Z,101585.47
2022-12-01T09:26:30.729Z,101612.81
2022-12-01T09:29:18.111Z,101616.09
2022-12-01T09:32:04.680Z,101594.31
2022-12-01T09:34:51.047Z,101614.00
2022-12-01T09:37:38.514Z,101615.84
2022-12-01T09:40:50.795Z,101619.97
2022-12-01T09:43:49.376Z,101610.44
2022-12-01T09:46:38.620Z,101594.88
2022-12-01T09:49:57.492Z,101627.91
2022-12-01T09:52:50.095Z,101602.19
2022-12-01T09:55:39.693Z,101616.91
2022-12-01T09:58:32.413Z,101597.63
2022-12-01T10:01:26.949Z,101611.69
2022-12-01T10:04:18.545Z,101600.69
2022-12-01T10:07:20.126Z,101594.31
2022-12-01T10:10:40.493Z,101607.72
2022-12-01T10:13:29.423Z,101611.03
2022-12-01T10:16:26.830Z,101603.38
2022-12-01T10:19:29.328Z,101583.44
2022-12-01T10:22:34.246Z,101560.84
2022-12-01T10:25:28.890Z,101554.84
2022-12-01T10:28:45.807Z,101589.22
2022-12-01T10:32:00.854Z,101541.81
2022-12-01T10:34:48.408Z,101570.44
2022-12-01T10:37:35.762Z,101584.09
2022-12-01T10:40:23.187Z,101584.75
2022-12-01T10:43:10.749Z,101582.69
2022-12-01T10:45:58.091Z,101575.19
2022-12-01T10:48:59.929Z,101581.41
2022-12-01T10:51:51.014Z,101586.63
2022-12-01T10:54:41.434Z,101589.16
2022-12-01T10:57:33.852Z,101547.84
2022-12-01T11:00:58.626Z,101525.06
2022-12-01T11:03:36.858Z,101570.44
2022-12-01T11:06:28.900Z,101544.53
2022-12-01T11:09:25.747Z,101584.28
2022-12-01T11:12:16.125Z,101556.75
2022-12-01T11:15:03.127Z,101581.16
2022-12-01T11:18:05.156Z,101564.59
2022-12-01T11:21:15.156Z,101578.09
2022-12-01T11:24:01.796Z,101574.53
2022-12-01T11:26:48.190Z,101557.75
2022-12-01T11:29:36.817Z,101571.66
2022-12-01T11:32:29.562Z,101569.13
2022-12-01T11:35:20.285Z,101528.50
2022-12-01T11:41:40.359Z,101570.34
2022-12-01T11:44:50.398Z,101570.59
2022-12-01T11:47:59.538Z,101576.56
2022-12-01T11:51:05.508Z,101582.00
2022-12-01T11:54:06.647Z,101582.41
2022-12-01T11:57:25.421Z,101580.13
2022-12-01T12:00:00.820Z,101551.69
2022-12-01T12:03:03.136Z,101564.94
2022-12-01T12:06:38.995Z,101569.28
2022-12-01T12:09:44.950Z,101556.84
2022-12-01T12:13:03.291Z,101513.16
2022-12-01T12:16:12.958Z,101570.78
2022-12-01T12:19:12.078Z,101570.34
2022-12-01T12:22:30.577Z,101572.81
2022-12-01T12:25:24.132Z,101572.78
2022-12-01T12:28:36.100Z,101559.53
2022-12-01T12:31:44.779Z,101572.59
2022-12-01T12:35:03.674Z,101569.44
2022-12-01T12:38:28.738Z,101558.63
2022-12-01T12:41:29.888Z,101531.72
2022-12-01T12:44:31.110Z,101561.09
2022-12-01T12:48:06.755Z,101511.41
2022-12-01T12:50:59.982Z,101561.34
2022-12-01T12:53:50.135Z,101558.47
2022-12-01T12:56:38.817Z,101564.69
2022-12-01T12:59:35.757Z,101543.06
2022-12-01T13:02:43.887Z,101554.47
2022-12-01T13:05:44.080Z,101552.78
2022-12-01T13:08:40.603Z,101544.84
2022-12-01T13:11:39.481Z,101535.34
2022-12-01T13:14:30.522Z,101555.84
2022-12-01T13:17:23.940Z,101528.28
2022-12-01T13:20:15.955Z,101550.69
2022-12-01T13:23:03.495Z,101558.53
2022-12-01T13:25:53.310Z,101555.84
2022-12-01T13:28:57.216Z,101529.34
2022-12-01T13:31:47.019Z,101554.19
2022-12-01T13:34:38.623Z,101558.75
2022-12-01T13:37:33.173Z,101555.84
2022-12-01T13:40:28.689Z,101558.09
2022-12-01T13:43:36.085Z,101568.06
2022-12-01T13:46:26.107Z,101556.72
2022-12-01T13:49:35.295Z,101563.50
2022-12-01T13:52:21.962Z,101559.75
2022-12-01T13:55:09.132Z,101563.50
2022-12-01T13:57:58.668Z,101568.06
2022-12-01T14:00:46.103Z,101555.44
2022-12-01T14:03:39.699Z,101540.09
2022-12-01T14:06:49.631Z,101552.28
2022-12-01T14:09:37.518Z,101543.63
2022-12-01T14:12:31.535Z,101536.78
2022-12-01T14:15:29.190Z,101556.47
2022-12-01T14:18:18.963Z,101563.16
2022-12-01T14:21:07.956Z,101554.44
2022-12-01T14:24:40.448Z,101555.50
2022-12-01T14:27:42.143Z,101545.13
2022-12-01T14:30:45.895Z,101493.19
2022-12-01T14:33:45.604Z,101549.91
2022-12-01T14:36:44.887Z,101560.28
2022-12-01T14:39:34.973Z,101536.00
2022-12-01T14:42:50.745Z,101531.03
2022-12-01T14:45:40.713Z,101532.91
2022-12-01T14:48:36.735Z,101539.75
2022-12-01T14:51:45.515Z,101518.81
2022-12-01T14:54:43.717Z,101528.34
2022-12-01T14:57:49.647Z,101559.88
2022-12-01T15:00:38.230Z,101497.97
2022-12-01T15:03:30.489Z,101528.44
2022-12-01T15:06:30.448Z,101561.19
2022-12-01T15:09:36.332Z,101543.94
2022-12-01T15:12:28.716Z,101555.53
2022-12-01T15:15:27.068Z,101538.94
2022-12-01T15:18:32.339Z,101550.34
2022-12-01T15:21:30.219Z,101553.22
2022-12-01T15:24:25.202Z,101551.75
2022-12-01T15:27:28.222Z,101549.06
2022-12-01T15:30:17.026Z,101546.78
2022-12-01T15:33:04.643Z,101541.19
2022-12-01T15:35:51.574Z,101512.19
2022-12-01T15:38:47.883Z,101548.25
2022-12-01T15:41:35.974Z,101550.34
2022-12-01T15:44:45.499Z,101555.97
2022-12-01T15:47:44.997Z,101548.31
2022-12-01T15:50:33.872Z,101540.69
2022-12-01T15:53:26.050Z,101556.66
2022-12-01T15:56:13.267Z,101538.78
2022-12-01T15:59:12.715Z,101556.66
2022-12-01T16:02:24.243Z,101553.72
2022-12-01T16:05:13.980Z,101555.38
2022-12-01T16:08:25.104Z,101542.97
2022-12-01T16:11:17.907Z,101556.25
2022-12-01T16:14:17.584Z,101537.00
2022-12-01T16:17:05.741Z,101532.25
2022-12-01T16:20:30.990Z,101558.31
2022-12-01T16:23:27.051Z,101556.50
2022-12-01T16:26:14.233Z,101555.41
2022-12-01T16:29:03.630Z,101547.13
2022-12-01T16:32:18.760Z,101492.41
2022-12-01T16:34:59.349Z,101520.81
2022-12-01T16:37:46.211Z,101523.88
2022-12-01T16:40:33.426Z,101540.03
2022-12-01T16:43:22.574Z,101543.34
2022-12-01T16:46:13.962Z,101550.81
2022-12-01T16:49:00.416Z,101558.03
2022-12-01T16:51:55.923Z,101559.06
2022-12-01T16:54:45.637Z,101496.50
2022-12-01T16:57:33.769Z,101554.09
2022-12-01T17:00:25.946Z,101560.13
2022-12-01T17:03:15.765Z,101558.22
2022-12-01T17:06:03.258Z,101541.03
2022-12-01T17:08:49.982Z,101549.31
2022-12-01T17:11:45.887Z,101557.19
2022-12-01T17:14:50.318Z,101537.06
2022-12-01T17:17:36.893Z,101553.66
2022-12-01T17:20:23.631Z,101545.38
2022-12-01T17:23:11.368Z,101548.28
2022-12-01T17:25:58.183Z,101539.56
2022-12-01T17:28:44.535Z,101538.09
2022-12-01T17:31:31.516Z,101541.84
2022-12-01T17:34:18.010Z,101489.03
2022-12-01T17:37:07.095Z,101556.81
2022-12-01T17:39:58.807Z,101533.81
2022-12-01T17:42:50.451Z,101515.97
2022-12-01T17:45:42.163Z,101542.88
2022-12-01T17:48:29.050Z,101549.69
2022-12-01T17:51:18.047Z,101516.31
2022-12-01T17:54:05.149Z,101539.09
2022-12-01T17:56:53.962Z,101527.88
2022-12-01T17:59:41.004Z,101543.47
2022-12-01T18:02:28.185Z,101548.47
2022-12-01T18:05:15.165Z,101510.38
2022-12-01T18:08:02.049Z,101535.66
2022-12-01T18:10:49.339Z,101543.13
2022-12-01T18:13:37.658Z,101550.81
2022-12-01T18:16:27.078Z,101538.72
2022-12-01T18:19:13.993Z,101543.06
2022-12-01T18:22:02.981Z,101474.72
2022-12-01T18:24:49.356Z,101528.78
2022-12-01T18:27:48.744Z,101479.91
2022-12-01T18:30:49.673Z,101516.38
2022-12-01T18:33:38.062Z,101557.63
2022-12-01T18:36:25.825Z,101536.44
2022-12-01T18:39:12.820Z,101479.50
2022-12-01T18:41:59.546Z,101483.44
2022-12-01T18:44:46.645Z,101545.78
2022-12-01T18:47:32.790Z,101534.84
2022-12-01T18:50:19.585Z,101546.47
2022-12-01T18:53:06.133Z,101495.31
2022-12-01T18:55:52.699Z,101546.69
2022-12-01T18:58:40.157Z,101534.06
2022-12-01T19:01:31.868Z,101546.28
2022-12-01T19:04:19.222Z,101530.16
2022-12-01T19:07:05.982Z,101523.72
2022-12-01T19:09:54.480Z,101514.41
2022-12-01T19:12:47.224Z,101512.09
2022-12-01T19:15:36.578Z,101484.31
2022-12-01T19:18:23.267Z,101465.72
2022-12-01T19:21:12.651Z,101530.94
2022-12-01T19:23:59.338Z,101506.09
2022-12-01T19:26:46.084Z,101524.38
2022-12-01T19:29:33.094Z,101518.56
2022-12-01T19:32:20.166Z,101535.56
2022-12-01T19:35:07.542Z,101525.81
2022-12-01T19:37:53.996Z,101493.09
2022-12-01T19:40:45.726Z,101526.03
2022-12-01T19:43:35.563Z,101524.38
2022-12-01T19:46:24.327Z,101521.06
2022-12-01T19:49:11.340Z,101528.34
2022-12-01T19:52:03.374Z,101522.72
2022-12-01T19:54:50.642Z,101512.75
2022-12-01T19:57:37.509Z,101515.84
2022-12-01T20:00:26.324Z,101500.53
2022-12-01T20:03:13.374Z,101512.91
2022-12-01T20:06:10.501Z,101523.09
2022-12-01T20:09:00.723Z,101527.00
2022-12-01T20:11:47.637Z,101488.88
2022-12-01T20:14:38.306Z,101499.84
2022-12-01T20:17:28.142Z,101531.75
2022-12-01T20:20:17.889Z,101496.16
2022-12-01T20:23:06.390Z,101512.28
2022-12-01T20:25:53.544Z,101530.50
2022-12-01T20:28:40.507Z,101533.81
2022-12-01T20:31:28.684Z,101506.69
2022-12-01T20:34:21.199Z,101504.16
2022-12-01T20:37:08.323Z,101509.50
2022-12-01T20:39:55.342Z,101501.84
2022-12-01T20:42:43.065Z,101479.09
2022-12-01T20:45:30.322Z,101521.78
2022-12-01T20:48:17.874Z,101517.66
2022-12-01T20:51:05.596Z,101517.66
2022-12-01T20:54:25.804Z,101526.59
2022-12-01T20:56:59.746Z,101470.69
2022-12-01T20:59:46.682Z,101508.78
2022-12-01T21:02:33.388Z,101495.13
2022-12-01T21:05:20.739Z,101511.09
2022-12-01T21:08:11.831Z,101505.31
2022-12-01T21:11:04.583Z,101511.75
2022-12-01T21:13:51.009Z,101519.78
2022-12-01T21:16:38.728Z,101517.34
2022-12-01T21:20:07.213Z,101463.25
2022-12-01T21:22:54.550Z,101519.78
2022-12-01T21:25:42.202Z,101488.72
2022-12-01T21:28:30.320Z,101497.41
2022-12-01T21:31:17.558Z,101510.66
2022-12-01T21:34:20.621Z,101500.06
2022-12-01T21:37:24.334Z,101520.81
2022-12-01T21:40:23.797Z,101522.06
2022-12-01T21:43:22.025Z,101525.41
2022-12-01T21:46:15.512Z,101498.50
2022-12-01T21:49:02.280Z,101516.72
2022-12-01T21:51:52.354Z,101510.72
2022-12-01T21:54:39.026Z,101506.19
2022-12-01T21:57:32.000Z,101511.56
2022-12-01T22:00:37.537Z,101505.53
2022-12-01T22:03:33.610Z,101490.44
2022-12-01T22:06:30.606Z,101486.69
2022-12-01T22:09:32.670Z,101508.25
2022-12-01T22:12:30.418Z,101460.59
2022-12-01T22:15:45.347Z,101439.06
2022-12-01T22:18:51.050Z,101506.41
2022-12-01T22:21:55.357Z,101506.59
2022-12-01T22:24:54.741Z,101492.31
2022-12-01T22:27:44.684Z,101467.66
2022-12-01T22:30:33.590Z,101464.94
2022-12-01T22:33:23.661Z,101427.47
2022-12-01T22:36:23.303Z,101493.16
2022-12-01T22:39:25.240Z,101468.88
2022-12-01T22:42:19.909Z,101460.81
2022-12-01T22:45:22.933Z,101474.06
2022-12-01T22:48:30.046Z,101485.84
2022-12-01T22:51:24.088Z,101483.16
2022-12-01T22:54:11.060Z,101495.84
2022-12-01T22:57:06.151Z,101422.69
2022-12-01T22:59:53.120Z,101476.34
2022-12-01T23:02:43.176Z,101466.56
2022-12-01T23:05:30.707Z,101473.38
2022-12-01T23:08:20.912Z,101441.50
2022-12-01T23:11:11.537Z,101447.09
2022-12-01T23:13:58.558Z,101459.13
2022-12-01T23:16:44.574Z,101483.41
2022-12-01T23:19:33.630Z,101478.63
2022-12-01T23:22:20.770Z,101411.31
2022-12-01T23:25:17.008Z,101470.97
2022-12-01T23:28:09.967Z,101475.94
2022-12-01T23:31:01.114Z,101475.72
2022-12-01T23:33:47.727Z,101470.34
2022-12-01T23:36:34.685Z,101469.72
2022-12-01T23:39:29.297Z,101409.47
2022-12-01T23:42:19.323Z,101421.50
2022-12-01T23:45:11.763Z,101449.84
2022-12-01T23:47:58.894Z,101470.16
2022-12-01T23:50:51.884Z,101438.66
2022-12-01T23:53:39.586Z,101469.31
2022-12-01T23:56:28.808Z,101467.88
2022-12-01T23:59:15.528Z,101479.66
